createdAt,value
2022-07-29T00:00:26.898Z,45.61
2022-07-29T00:01:26.879Z,45.41
2022-07-29T00:02:26.955Z,45.41
2022-07-29T00:03:26.865Z,45.51
2022-07-29T00:04:26.979Z,45.91
2022-07-29T00:05:26.846Z,45.91
2022-07-29T00:06:26.844Z,46.11
2022-07-29T00:07:26.841Z,45.81
2022-07-29T00:08:26.828Z,45.91
2022-07-29T00:09:26.815Z,45.51
2022-07-29T00:10:26.837Z,45.73
2022-07-29T00:11:26.805Z,45.81
2022-07-29T00:12:27.088Z,46.41
2022-07-29T00:13:32.155Z,46.34
2022-07-29T00:14:27.780Z,46.61
2022-07-29T00:15:26.791Z,46.03
2022-07-29T00:16:26.817Z,46.54
2022-07-29T00:17:26.761Z,45.33
2022-07-29T00:18:26.746Z,46.34
2022-07-29T00:19:26.728Z,46.54
2022-07-29T00:20:26.757Z,46.03
2022-07-29T00:21:26.713Z,46.23
2022-07-29T00:22:26.723Z,45.73
2022-07-29T00:23:26.720Z,46.64
2022-07-29T00:24:26.703Z,46.34
2022-07-29T00:25:26.690Z,46.34
2022-07-29T00:26:26.708Z,46.23
2022-07-29T00:27:26.679Z,46.23
2022-07-29T00:28:26.667Z,46.64
2022-07-29T00:29:34.858Z,46.44
2022-07-29T00:30:27.654Z,46.84
2022-07-29T00:31:26.707Z,46.84
2022-07-29T00:32:26.683Z,46.76
2022-07-29T00:33:26.624Z,47.04
2022-07-29T00:34:26.623Z,47.34
2022-07-29T00:35:26.630Z,46.73
2022-07-29T00:36:26.609Z,46.23
2022-07-29T00:37:26.589Z,46.86
2022-07-29T00:38:26.581Z,46.94
2022-07-29T00:39:26.586Z,46.76
2022-07-29T00:40:26.571Z,47.06
2022-07-29T00:41:26.588Z,46.86
2022-07-29T00:42:26.568Z,46.96
2022-07-29T00:43:26.579Z,46.66
2022-07-29T00:44:26.542Z,47.36
2022-07-29T00:45:26.537Z,47.64
2022-07-29T00:46:26.583Z,47.66
2022-07-29T00:47:26.562Z,47.77
2022-07-29T00:48:26.511Z,48.14
2022-07-29T00:49:26.545Z,46.66
2022-07-29T00:50:26.514Z,47.77
2022-07-29T00:51:26.487Z,47.66
2022-07-29T00:52:26.477Z,47.46
2022-07-29T00:53:26.491Z,48.07
2022-07-29T00:54:26.461Z,47.14
2022-07-29T00:55:26.447Z,48.17
2022-07-29T00:56:26.446Z,48.77
2022-07-29T00:57:26.461Z,48.17
2022-07-29T00:58:26.434Z,48.27
2022-07-29T00:59:26.427Z,48.17
2022-07-29T01:00:27.438Z,48.07
2022-07-29T01:01:26.473Z,48.47
2022-07-29T01:02:26.441Z,48.77
2022-07-29T01:03:26.397Z,48.57
2022-07-29T01:04:26.402Z,48.37
2022-07-29T01:05:50.874Z,48.77
2022-07-29T01:06:27.397Z,48.99
2022-07-29T01:07:26.356Z,48.69
2022-07-29T01:08:26.353Z,48.29
2022-07-29T01:09:40.855Z,48.99
2022-07-29T01:10:27.372Z,48.69
2022-07-29T01:11:26.331Z,48.49
2022-07-29T01:12:26.335Z,48.39
2022-07-29T01:13:26.309Z,48.49
2022-07-29T01:14:26.315Z,48.79
2022-07-29T01:15:26.285Z,48.99
2022-07-29T01:16:26.370Z,48.69
2022-07-29T01:17:26.277Z,48.69
2022-07-29T01:18:26.292Z,49.50
2022-07-29T01:19:26.268Z,48.69
2022-07-29T01:20:31.619Z,48.69
2022-07-29T01:21:27.244Z,48.59
2022-07-29T01:22:26.266Z,49.50
2022-07-29T01:23:26.230Z,49.73
2022-07-29T01:24:26.233Z,49.82
2022-07-29T01:25:26.233Z,49.52
2022-07-29T01:26:26.201Z,49.70
2022-07-29T01:27:26.199Z,49.62
2022-07-29T01:28:26.207Z,49.42
2022-07-29T01:29:26.170Z,49.93
2022-07-29T01:30:26.179Z,49.22
2022-07-29T01:31:26.681Z,49.52
2022-07-29T01:32:28.344Z,49.93
2022-07-29T01:33:26.147Z,50.13
2022-07-29T01:34:26.145Z,49.82
2022-07-29T01:35:26.144Z,49.42
2022-07-29T01:36:26.210Z,50.23
2022-07-29T01:37:26.154Z,50.23
2022-07-29T01:38:26.114Z,50.63
2022-07-29T01:39:26.112Z,50.45
2022-07-29T01:40:26.122Z,50.56
2022-07-29T01:41:26.093Z,50.43
2022-07-29T01:42:26.095Z,50.05
2022-07-29T01:43:26.102Z,50.13
2022-07-29T01:44:26.080Z,49.85
2022-07-29T01:45:26.070Z,50.33
2022-07-29T01:46:26.126Z,50.43
2022-07-29T01:47:26.037Z,49.75
2022-07-29T01:48:26.041Z,49.85
2022-07-29T01:49:26.217Z,50.45
2022-07-29T01:50:26.036Z,50.65
2022-07-29T01:51:26.011Z,50.63
2022-07-29T01:52:26.026Z,50.23
2022-07-29T01:53:26.001Z,50.65
2022-07-29T01:54:25.998Z,50.85
2022-07-29T01:55:26.048Z,50.56
2022-07-29T01:56:25.977Z,50.73
2022-07-29T01:57:25.955Z,50.35
2022-07-29T01:58:25.950Z,50.35
2022-07-29T01:59:25.943Z,51.14
2022-07-29T02:00:25.963Z,50.76
2022-07-29T02:01:26.003Z,50.45
2022-07-29T02:02:25.921Z,50.35
2022-07-29T02:03:25.918Z,51.46
2022-07-29T02:04:29.612Z,50.56
2022-07-29T02:05:25.947Z,50.35
2022-07-29T02:06:25.887Z,50.76
2022-07-29T02:07:25.883Z,50.96
2022-07-29T02:08:25.864Z,50.85
2022-07-29T02:09:25.860Z,50.96
2022-07-29T02:10:26.237Z,50.96
2022-07-29T02:11:25.923Z,51.06
2022-07-29T02:12:25.884Z,50.65
2022-07-29T02:13:25.834Z,50.76
2022-07-29T02:14:25.842Z,50.76
2022-07-29T02:15:25.813Z,50.65
2022-07-29T02:16:25.896Z,50.85
2022-07-29T02:17:25.796Z,51.66
2022-07-29T02:18:25.822Z,51.16
2022-07-29T02:19:25.818Z,51.56
2022-07-29T02:20:25.770Z,51.56
2022-07-29T02:21:25.762Z,50.96
2022-07-29T02:22:25.753Z,51.26
2022-07-29T02:23:25.743Z,50.88
2022-07-29T02:24:25.763Z,51.08
2022-07-29T02:25:25.729Z,50.98
2022-07-29T02:26:26.725Z,50.98
2022-07-29T02:27:25.712Z,51.08
2022-07-29T02:28:25.699Z,50.88
2022-07-29T02:29:25.708Z,51.48
2022-07-29T02:30:25.720Z,50.98
2022-07-29T02:31:25.770Z,51.48
2022-07-29T02:32:25.670Z,52.19
2022-07-29T02:33:25.665Z,51.79
2022-07-29T02:34:25.670Z,51.28
2022-07-29T02:35:25.642Z,52.09
2022-07-29T02:36:25.662Z,52.19
2022-07-29T02:37:25.628Z,52.29
2022-07-29T02:38:25.613Z,51.48
2022-07-29T02:39:25.629Z,51.38
2022-07-29T02:40:25.601Z,51.91
2022-07-29T02:41:25.599Z,51.99
2022-07-29T02:42:25.614Z,52.22
2022-07-29T02:43:25.581Z,51.68
2022-07-29T02:44:25.581Z,52.39
2022-07-29T02:45:25.559Z,52.19
2022-07-29T02:46:28.953Z,52.19
2022-07-29T02:47:25.550Z,52.22
2022-07-29T02:48:25.540Z,52.29
2022-07-29T02:49:25.628Z,52.51
2022-07-29T02:50:25.538Z,52.39
2022-07-29T02:51:44.179Z,52.22
2022-07-29T02:52:26.511Z,52.39
2022-07-29T02:53:25.501Z,52.42
2022-07-29T02:54:25.509Z,52.72
2022-07-29T02:55:25.487Z,52.51
2022-07-29T02:56:25.484Z,52.72
2022-07-29T02:57:25.473Z,52.42
2022-07-29T02:58:25.498Z,52.51
2022-07-29T02:59:25.486Z,52.31
2022-07-29T03:00:25.447Z,52.72
2022-07-29T03:01:25.504Z,52.72
2022-07-29T03:02:25.423Z,53.02
2022-07-29T03:03:25.422Z,52.62
2022-07-29T03:04:25.451Z,52.62
2022-07-29T03:05:25.437Z,52.92
2022-07-29T03:06:30.974Z,52.82
2022-07-29T03:07:26.381Z,53.02
2022-07-29T03:08:25.394Z,52.62
2022-07-29T03:09:25.398Z,52.82
2022-07-29T03:10:25.368Z,52.80
2022-07-29T03:11:42.373Z,52.92
2022-07-29T03:12:26.345Z,52.92
2022-07-29T03:13:25.332Z,52.72
2022-07-29T03:14:25.331Z,53.12
2022-07-29T03:15:25.339Z,52.62
2022-07-29T03:16:25.444Z,52.72
2022-07-29T03:17:25.299Z,52.82
2022-07-29T03:18:25.282Z,53.42
2022-07-29T03:19:25.325Z,53.12
2022-07-29T03:20:25.277Z,52.72
2022-07-29T03:21:25.287Z,53.02
2022-07-29T03:22:25.257Z,53.32
2022-07-29T03:23:25.260Z,53.22
2022-07-29T03:24:25.248Z,53.20
2022-07-29T03:25:25.266Z,53.12
2022-07-29T03:26:25.275Z,53.12
2022-07-29T03:27:25.235Z,53.02
2022-07-29T03:28:27.021Z,53.12
2022-07-29T03:29:25.201Z,53.32
2022-07-29T03:30:26.210Z,53.02
2022-07-29T03:31:25.274Z,52.62
2022-07-29T03:32:25.420Z,52.92
2022-07-29T03:33:25.204Z,53.32
2022-07-29T03:34:25.158Z,52.62
2022-07-29T03:35:25.166Z,53.52
2022-07-29T03:36:25.142Z,52.92
2022-07-29T03:37:25.134Z,53.32
2022-07-29T03:38:25.138Z,53.22
2022-07-29T03:39:25.142Z,53.92
2022-07-29T03:40:25.117Z,54.33
2022-07-29T03:41:25.114Z,54.56
2022-07-29T03:42:25.111Z,54.46
2022-07-29T03:43:25.086Z,54.66
2022-07-29T03:44:25.076Z,53.55
2022-07-29T03:45:25.095Z,54.05
2022-07-29T03:46:25.135Z,54.16
2022-07-29T03:47:49.743Z,53.96
2022-07-29T03:48:26.043Z,54.36
2022-07-29T03:49:25.087Z,54.16
2022-07-29T03:50:25.024Z,54.56
2022-07-29T03:51:33.992Z,54.46
2022-07-29T03:52:26.049Z,54.36
2022-07-29T03:53:24.997Z,54.56
2022-07-29T03:54:24.981Z,54.16
2022-07-29T03:55:24.979Z,54.25
2022-07-29T03:56:24.985Z,53.85
2022-07-29T03:57:24.979Z,54.66
2022-07-29T03:58:25.009Z,54.46
2022-07-29T03:59:24.973Z,54.76
2022-07-29T04:00:24.941Z,54.66
2022-07-29T04:01:25.004Z,54.25
2022-07-29T04:02:30.176Z,54.76
2022-07-29T04:03:25.974Z,54.96
2022-07-29T04:04:24.908Z,54.36
2022-07-29T04:05:24.915Z,54.46
2022-07-29T04:06:24.924Z,54.46
2022-07-29T04:07:24.888Z,53.65
2022-07-29T04:08:24.880Z,55.46
2022-07-29T04:09:24.874Z,54.96
2022-07-29T04:10:29.387Z,54.76
2022-07-29T04:11:25.885Z,55.29
2022-07-29T04:12:24.851Z,54.79
2022-07-29T04:13:24.902Z,54.96
2022-07-29T04:14:24.827Z,54.79
2022-07-29T04:15:24.826Z,55.26
2022-07-29T04:16:24.884Z,55.39
2022-07-29T04:17:24.857Z,54.96
2022-07-29T04:18:24.807Z,54.86
2022-07-29T04:19:24.796Z,55.36
2022-07-29T04:20:32.311Z,54.76
2022-07-29T04:21:24.797Z,54.96
2022-07-29T04:22:24.779Z,54.56
2022-07-29T04:23:24.795Z,55.06
2022-07-29T04:24:24.774Z,55.26
2022-07-29T04:25:24.775Z,54.96
2022-07-29T04:26:25.391Z,54.96
2022-07-29T04:27:24.738Z,55.36
2022-07-29T04:28:24.768Z,54.66
2022-07-29T04:29:24.723Z,54.66
2022-07-29T04:30:24.701Z,55.06
2022-07-29T04:31:26.058Z,55.26
2022-07-29T04:32:24.687Z,54.86
2022-07-29T04:33:24.980Z,54.56
2022-07-29T04:34:28.023Z,55.06
2022-07-29T04:35:24.676Z,54.16
2022-07-29T04:36:28.775Z,54.56
2022-07-29T04:37:25.647Z,54.76
2022-07-29T04:38:24.655Z,54.96
2022-07-29T04:39:24.694Z,55.06
2022-07-29T04:40:24.657Z,55.16
2022-07-29T04:41:28.552Z,55.16
2022-07-29T04:42:27.850Z,54.96
2022-07-29T04:43:24.596Z,54.46
2022-07-29T04:44:28.675Z,55.66
2022-07-29T04:45:24.602Z,55.26
2022-07-29T04:46:24.654Z,54.96
2022-07-29T04:47:24.782Z,55.36
2022-07-29T04:48:28.628Z,54.86
2022-07-29T04:49:24.641Z,54.46
2022-07-29T04:50:24.564Z,54.96
2022-07-29T04:51:24.541Z,54.96
2022-07-29T04:52:24.591Z,54.76
2022-07-29T04:53:24.571Z,55.06
2022-07-29T04:54:24.796Z,55.16
2022-07-29T04:55:24.509Z,54.96
2022-07-29T04:56:24.486Z,55.77
2022-07-29T04:57:24.678Z,54.25
2022-07-29T04:58:24.471Z,55.46
2022-07-29T04:59:24.470Z,55.46
2022-07-29T05:00:28.018Z,55.16
2022-07-29T05:01:25.501Z,55.66
2022-07-29T05:02:24.648Z,55.66
2022-07-29T05:03:24.435Z,55.26
2022-07-29T05:04:24.427Z,56.07
2022-07-29T05:05:24.422Z,55.16
2022-07-29T05:06:24.444Z,55.46
2022-07-29T05:07:24.541Z,56.07
2022-07-29T05:08:24.404Z,55.16
2022-07-29T05:09:24.387Z,56.07
2022-07-29T05:10:24.379Z,55.06
2022-07-29T05:11:28.626Z,55.77
2022-07-29T05:12:25.385Z,54.76
2022-07-29T05:13:24.360Z,55.66
2022-07-29T05:14:24.337Z,55.97
2022-07-29T05:15:24.506Z,55.66
2022-07-29T05:16:24.419Z,54.76
2022-07-29T05:17:24.554Z,56.27
2022-07-29T05:18:26.050Z,55.77
2022-07-29T05:19:24.313Z,55.36
2022-07-29T05:20:24.895Z,54.76
2022-07-29T05:21:24.292Z,55.36
2022-07-29T05:22:24.275Z,56.24
2022-07-29T05:23:24.262Z,56.15
2022-07-29T05:24:24.279Z,55.14
2022-07-29T05:25:24.262Z,55.36
2022-07-29T05:26:25.239Z,54.94
2022-07-29T05:27:24.235Z,55.34
2022-07-29T05:28:24.225Z,55.44
2022-07-29T05:29:44.892Z,54.73
2022-07-29T05:30:25.261Z,56.07
2022-07-29T05:31:24.266Z,55.87
2022-07-29T05:32:24.215Z,54.66
2022-07-29T05:33:35.912Z,55.94
2022-07-29T05:34:25.198Z,56.15
2022-07-29T05:35:24.178Z,56.15
2022-07-29T05:36:24.191Z,55.24
2022-07-29T05:37:24.168Z,55.26
2022-07-29T05:38:24.156Z,56.17
2022-07-29T05:39:47.311Z,55.06
2022-07-29T05:40:31.664Z,55.24
2022-07-29T05:41:32.302Z,54.94
2022-07-29T05:42:31.645Z,55.24
2022-07-29T05:43:24.136Z,54.83
2022-07-29T05:44:25.189Z,55.24
2022-07-29T05:45:24.097Z,56.04
2022-07-29T05:46:33.043Z,54.83
2022-07-29T05:47:24.072Z,54.83
2022-07-29T05:48:24.060Z,55.24
2022-07-29T05:49:27.132Z,55.94
2022-07-29T05:50:31.559Z,55.34
2022-07-29T05:51:24.035Z,55.34
2022-07-29T05:52:24.052Z,55.94
2022-07-29T05:53:24.039Z,55.31
2022-07-29T05:54:24.016Z,55.84
2022-07-29T05:55:24.014Z,55.54
2022-07-29T05:56:24.007Z,55.34
2022-07-29T05:57:24.031Z,55.91
2022-07-29T05:58:24.038Z,55.11
2022-07-29T05:59:28.304Z,54.94
2022-07-29T06:00:24.972Z,54.83
2022-07-29T06:01:24.030Z,55.14
2022-07-29T06:02:23.966Z,55.04
2022-07-29T06:03:23.977Z,54.94
2022-07-29T06:04:23.996Z,55.31
2022-07-29T06:05:23.925Z,55.11
2022-07-29T06:06:23.922Z,55.21
2022-07-29T06:07:23.943Z,54.81
2022-07-29T06:08:23.896Z,55.11
2022-07-29T06:09:24.062Z,55.41
2022-07-29T06:10:26.293Z,54.91
2022-07-29T06:11:23.888Z,55.21
2022-07-29T06:12:23.879Z,54.88
2022-07-29T06:13:23.859Z,55.11
2022-07-29T06:14:23.853Z,54.71
2022-07-29T06:15:23.873Z,54.91
2022-07-29T06:16:29.891Z,54.50
2022-07-29T06:17:24.831Z,55.11
2022-07-29T06:18:23.816Z,55.41
2022-07-29T06:19:23.833Z,54.38
2022-07-29T06:20:27.160Z,54.38
2022-07-29T06:21:23.798Z,54.48
2022-07-29T06:22:23.781Z,54.79
2022-07-29T06:23:23.773Z,53.75
2022-07-29T06:24:23.803Z,53.95
2022-07-29T06:25:23.773Z,52.84
2022-07-29T06:26:30.223Z,54.73
2022-07-29T06:27:24.757Z,52.82
2022-07-29T06:28:23.752Z,52.62
2022-07-29T06:29:23.754Z,52.92
2022-07-29T06:30:24.082Z,53.32
2022-07-29T06:31:23.773Z,53.30
2022-07-29T06:32:23.769Z,53.80
2022-07-29T06:33:23.682Z,52.69
2022-07-29T06:34:23.702Z,52.57
2022-07-29T06:35:42.445Z,52.87
2022-07-29T06:36:25.098Z,52.47
2022-07-29T06:37:23.653Z,53.07
2022-07-29T06:38:31.174Z,52.87
2022-07-29T06:39:24.661Z,52.47
2022-07-29T06:40:23.650Z,52.17
2022-07-29T06:41:23.635Z,52.57
2022-07-29T06:42:23.626Z,52.80
2022-07-29T06:43:23.632Z,53.00
2022-07-29T06:44:23.728Z,52.59
2022-07-29T06:45:23.599Z,54.20
2022-07-29T06:46:23.809Z,54.30
2022-07-29T06:47:23.606Z,52.97
2022-07-29T06:48:23.578Z,54.20
2022-07-29T06:49:23.696Z,52.49
2022-07-29T06:50:23.552Z,54.28
2022-07-29T06:51:24.182Z,53.37
2022-07-29T06:52:23.617Z,53.90
2022-07-29T06:53:23.532Z,54.30
2022-07-29T06:54:23.569Z,54.30
2022-07-29T06:55:24.830Z,55.38
2022-07-29T06:56:23.522Z,54.08
2022-07-29T06:57:23.495Z,54.60
2022-07-29T06:58:23.561Z,54.80
2022-07-29T06:59:32.056Z,55.74
2022-07-29T07:00:24.639Z,56.51
2022-07-29T07:01:23.513Z,56.77
2022-07-29T07:02:23.569Z,56.07
2022-07-29T07:03:23.467Z,57.30
2022-07-29T07:04:23.442Z,57.60
2022-07-29T07:05:23.435Z,57.12
2022-07-29T07:06:23.469Z,57.53
2022-07-29T07:07:23.421Z,59.07
2022-07-29T07:08:23.440Z,57.32
2022-07-29T07:09:23.397Z,58.64
2022-07-29T07:10:23.412Z,59.24
2022-07-29T07:11:23.384Z,57.83
2022-07-29T07:12:23.408Z,59.34
2022-07-29T07:13:23.366Z,62.37
2022-07-29T07:14:23.356Z,61.83
2022-07-29T07:15:38.859Z,66.87
2022-07-29T07:16:24.413Z,63.00
2022-07-29T07:17:23.340Z,65.05
2022-07-29T07:18:23.356Z,66.99
2022-07-29T07:19:23.350Z,67.06
2022-07-29T07:20:23.372Z,69.31
2022-07-29T07:21:23.309Z,70.12
2022-07-29T07:22:23.371Z,73.39
2022-07-29T07:23:23.299Z,74.13
2022-07-29T07:24:23.393Z,76.90
2022-07-29T07:25:23.357Z,76.35
2022-07-29T07:26:23.267Z,74.98
2022-07-29T07:27:23.268Z,77.30
2022-07-29T07:28:24.726Z,77.50
2022-07-29T07:29:23.244Z,76.53
2022-07-29T07:30:23.269Z,77.64
2022-07-29T07:31:23.273Z,78.45
2022-07-29T07:32:23.350Z,78.21
2022-07-29T07:33:23.222Z,77.91
2022-07-29T07:34:28.348Z,77.71
2022-07-29T07:35:24.540Z,76.79
2022-07-29T07:36:23.184Z,78.11
2022-07-29T07:37:23.331Z,80.13
2022-07-29T07:38:23.201Z,81.25
2022-07-29T07:39:23.161Z,81.45
2022-07-29T07:40:23.214Z,78.88
2022-07-29T07:41:23.163Z,78.08
2022-07-29T07:42:23.172Z,80.30
2022-07-29T07:43:23.147Z,79.55
2022-07-29T07:44:23.685Z,77.03
2022-07-29T07:45:23.096Z,78.85
2022-07-29T07:46:23.188Z,77.33
2022-07-29T07:47:23.113Z,75.48
2022-07-29T07:48:23.113Z,74.97
2022-07-29T07:49:23.252Z,75.68
2022-07-29T07:50:23.067Z,75.54
2022-07-29T07:51:23.041Z,75.64
2022-07-29T07:52:23.103Z,77.19
2022-07-29T07:53:23.055Z,77.56
2022-07-29T07:54:23.188Z,75.64
2022-07-29T07:55:23.020Z,76.25
2022-07-29T07:56:23.009Z,75.04
2022-07-29T07:57:23.027Z,75.68
2022-07-29T07:58:23.044Z,74.66
2022-07-29T07:59:22.986Z,73.75
2022-07-29T08:00:23.880Z,73.96
2022-07-29T08:01:23.192Z,72.95
2022-07-29T08:02:23.008Z,75.13
2022-07-29T08:03:23.546Z,73.42
2022-07-29T08:04:27.486Z,74.49
2022-07-29T08:05:23.941Z,73.52
2022-07-29T08:06:22.937Z,74.73
2022-07-29T08:07:22.959Z,73.11
2022-07-29T08:08:22.931Z,74.49
2022-07-29T08:09:29.482Z,73.02
2022-07-29T08:10:24.526Z,74.02
2022-07-29T08:11:22.880Z,74.69
2022-07-29T08:12:22.953Z,73.38
2022-07-29T08:13:22.890Z,71.30
2022-07-29T08:14:23.588Z,71.80
2022-07-29T08:15:22.871Z,71.47
2022-07-29T08:16:22.908Z,73.28
2022-07-29T08:17:22.843Z,72.54
2022-07-29T08:18:23.464Z,70.73
2022-07-29T08:19:22.833Z,72.54
2022-07-29T08:20:22.810Z,72.04
2022-07-29T08:21:22.828Z,71.44
2022-07-29T08:22:22.813Z,72.95
2022-07-29T08:23:23.465Z,72.48
2022-07-29T08:24:22.776Z,70.73
2022-07-29T08:25:22.770Z,70.93
2022-07-29T08:26:22.760Z,72.95
2022-07-29T08:27:42.358Z,71.94
2022-07-29T08:28:25.847Z,74.66
2022-07-29T08:29:22.737Z,72.04
2022-07-29T08:30:22.724Z,72.64
2022-07-29T08:31:22.855Z,71.40
2022-07-29T08:32:43.760Z,69.15
2022-07-29T08:33:23.756Z,69.62
2022-07-29T08:34:25.698Z,69.01
2022-07-29T08:35:23.689Z,70.29
2022-07-29T08:36:22.682Z,68.65
2022-07-29T08:37:22.674Z,67.00
2022-07-29T08:38:22.670Z,67.24
2022-07-29T08:39:22.704Z,68.62
2022-07-29T08:40:32.172Z,66.80
2022-07-29T08:41:23.643Z,68.55
2022-07-29T08:42:22.822Z,66.97
2022-07-29T08:43:22.623Z,69.42
2022-07-29T08:44:25.319Z,70.62
2022-07-29T08:45:23.665Z,69.82
2022-07-29T08:46:23.165Z,69.42
2022-07-29T08:47:22.604Z,68.78
2022-07-29T08:48:22.585Z,67.81
2022-07-29T08:49:22.596Z,67.27
2022-07-29T08:50:22.618Z,67.21
2022-07-29T08:51:22.562Z,61.91
2022-07-29T08:52:22.884Z,65.33
2022-07-29T08:53:22.550Z,63.67
2022-07-29T08:54:22.552Z,65.10
2022-07-29T08:55:22.532Z,63.79
2022-07-29T08:56:22.541Z,61.76
2022-07-29T08:57:22.509Z,64.40
2022-07-29T08:58:23.322Z,61.29
2022-07-29T08:59:22.767Z,62.89
2022-07-29T09:00:22.519Z,63.90
2022-07-29T09:01:22.526Z,63.06
2022-07-29T09:02:22.482Z,63.36
2022-07-29T09:03:22.525Z,63.17
2022-07-29T09:04:22.464Z,58.72
2022-07-29T09:05:22.466Z,59.00
2022-07-29T09:06:22.449Z,59.08
2022-07-29T09:07:22.688Z,59.47
2022-07-29T09:08:22.434Z,60.98
2022-07-29T09:09:22.440Z,61.11
2022-07-29T09:10:22.424Z,61.44
2022-07-29T09:11:22.418Z,63.48
2022-07-29T09:12:28.816Z,62.85
2022-07-29T09:13:23.397Z,62.65
2022-07-29T09:14:22.399Z,62.82
2022-07-29T09:15:22.379Z,61.51
2022-07-29T09:16:43.840Z,61.21
2022-07-29T09:17:23.550Z,61.58
2022-07-29T09:18:31.017Z,61.49
2022-07-29T09:19:23.346Z,61.76
2022-07-29T09:20:22.347Z,61.05
2022-07-29T09:21:22.338Z,62.26
2022-07-29T09:22:22.348Z,61.52
2022-07-29T09:23:23.052Z,61.13
2022-07-29T09:24:22.303Z,62.60
2022-07-29T09:25:22.299Z,61.07
2022-07-29T09:26:22.308Z,59.29
2022-07-29T09:27:22.287Z,58.79
2022-07-29T09:28:22.313Z,60.96
2022-07-29T09:29:22.406Z,61.69
2022-07-29T09:30:31.293Z,61.71
2022-07-29T09:31:23.291Z,62.08
2022-07-29T09:32:22.273Z,61.93
2022-07-29T09:33:22.245Z,59.29
2022-07-29T09:34:22.282Z,58.20
2022-07-29T09:35:22.225Z,57.07
2022-07-29T09:36:22.213Z,56.32
2022-07-29T09:37:22.205Z,56.24
2022-07-29T09:38:22.195Z,56.24
2022-07-29T09:39:22.189Z,57.24
2022-07-29T09:40:22.199Z,57.22
2022-07-29T09:41:22.177Z,55.22
2022-07-29T09:42:22.162Z,56.16
2022-07-29T09:43:22.161Z,55.47
2022-07-29T09:44:22.170Z,53.34
2022-07-29T09:45:22.131Z,53.37
2022-07-29T09:46:22.170Z,54.67
2022-07-29T09:47:22.127Z,53.67
2022-07-29T09:48:22.116Z,54.44
2022-07-29T09:49:22.172Z,52.62
2022-07-29T09:50:22.125Z,52.89
2022-07-29T09:51:28.307Z,52.29
2022-07-29T09:52:23.096Z,55.66
2022-07-29T09:53:22.130Z,54.94
2022-07-29T09:54:22.058Z,54.09
2022-07-29T09:55:22.046Z,52.19
2022-07-29T09:56:22.045Z,52.37
2022-07-29T09:57:22.053Z,53.31
2022-07-29T09:58:22.217Z,52.44
2022-07-29T09:59:22.025Z,53.89
2022-07-29T10:00:22.045Z,53.42
2022-07-29T10:01:22.074Z,50.67
2022-07-29T10:02:23.777Z,54.60
2022-07-29T10:03:22.409Z,53.72
2022-07-29T10:04:21.969Z,52.69
2022-07-29T10:05:21.967Z,52.42
2022-07-29T10:06:21.976Z,50.67
2022-07-29T10:07:21.947Z,50.25
2022-07-29T10:08:22.048Z,49.98
2022-07-29T10:09:22.302Z,50.92
2022-07-29T10:10:21.917Z,52.19
2022-07-29T10:11:22.026Z,49.68
2022-07-29T10:12:21.911Z,48.25
2022-07-29T10:13:22.044Z,49.70
2022-07-29T10:14:21.888Z,51.75
2022-07-29T10:15:21.876Z,51.92
2022-07-29T10:16:21.921Z,49.90
2022-07-29T10:17:21.863Z,50.92
2022-07-29T10:18:22.117Z,51.10
2022-07-29T10:19:21.848Z,50.70
2022-07-29T10:20:21.837Z,50.37
2022-07-29T10:21:35.298Z,51.67
2022-07-29T10:22:51.505Z,50.87
2022-07-29T10:23:22.822Z,50.97
2022-07-29T10:24:21.807Z,51.47
2022-07-29T10:25:21.855Z,51.59
2022-07-29T10:26:21.790Z,52.69
2022-07-29T10:27:21.809Z,52.72
2022-07-29T10:28:21.958Z,53.52
2022-07-29T10:29:21.791Z,51.89
2022-07-29T10:30:21.761Z,52.47
2022-07-29T10:31:21.789Z,52.04
2022-07-29T10:32:21.744Z,51.12
2022-07-29T10:33:21.738Z,50.42
2022-07-29T10:34:21.725Z,50.62
2022-07-29T10:35:21.744Z,51.62
2022-07-29T10:36:21.701Z,51.29
2022-07-29T10:37:21.742Z,51.77
2022-07-29T10:38:21.943Z,51.15
2022-07-29T10:39:22.388Z,49.33
2022-07-29T10:40:21.740Z,47.71
2022-07-29T10:41:21.673Z,47.33
2022-07-29T10:42:29.505Z,50.07
2022-07-29T10:43:22.686Z,49.13
2022-07-29T10:44:23.129Z,50.05
2022-07-29T10:45:21.640Z,49.35
2022-07-29T10:46:21.728Z,49.93
2022-07-29T10:47:21.607Z,48.11
2022-07-29T10:48:22.171Z,49.10
2022-07-29T10:49:24.696Z,47.21
2022-07-29T10:50:21.595Z,49.36
2022-07-29T10:51:21.577Z,47.54
2022-07-29T10:52:26.659Z,45.93
2022-07-29T10:53:22.590Z,43.54
2022-07-29T10:54:21.582Z,44.93
2022-07-29T10:55:21.557Z,46.55
2022-07-29T10:56:21.540Z,46.37
2022-07-29T10:57:21.544Z,46.69
2022-07-29T10:58:21.519Z,48.31
2022-07-29T10:59:22.722Z,47.34
2022-07-29T11:00:21.569Z,46.20
2022-07-29T11:01:37.373Z,45.09
2022-07-29T11:02:42.019Z,44.37
2022-07-29T11:03:22.502Z,44.83
2022-07-29T11:04:21.499Z,44.81
2022-07-29T11:05:21.792Z,45.01
2022-07-29T11:06:26.699Z,44.99
2022-07-29T11:07:22.488Z,45.14
2022-07-29T11:08:26.157Z,45.79
2022-07-29T11:10:22.455Z,46.35
2022-07-29T11:11:22.446Z,46.83
2022-07-29T11:12:22.408Z,43.23
2022-07-29T11:13:21.550Z,44.62
2022-07-29T11:14:26.377Z,45.11
2022-07-29T11:15:22.414Z,45.51
2022-07-29T11:16:21.404Z,44.99
2022-07-29T11:17:21.366Z,45.71
2022-07-29T11:18:21.359Z,45.43
2022-07-29T11:19:21.561Z,44.92
2022-07-29T11:20:22.375Z,44.02
2022-07-29T11:21:23.250Z,45.14
2022-07-29T11:22:21.336Z,45.75
2022-07-29T11:23:21.737Z,44.92
2022-07-29T11:25:50.143Z,43.40
2022-07-29T11:26:23.100Z,43.72
2022-07-29T11:27:21.346Z,43.20
2022-07-29T11:28:25.170Z,42.61
2022-07-29T11:29:21.281Z,44.97
2022-07-29T11:30:21.266Z,42.69
2022-07-29T11:31:21.260Z,42.65
2022-07-29T11:32:23.224Z,42.15
2022-07-29T11:33:21.333Z,41.73
2022-07-29T11:34:23.041Z,41.89
2022-07-29T11:35:37.112Z,40.39
2022-07-29T11:36:28.031Z,41.83
2022-07-29T11:37:27.636Z,40.15
2022-07-29T11:38:22.209Z,39.75
2022-07-29T11:39:21.245Z,41.20
2022-07-29T11:40:21.466Z,40.50
2022-07-29T11:41:21.185Z,40.56
2022-07-29T11:42:32.447Z,39.36
2022-07-29T11:43:22.171Z,39.75
2022-07-29T11:44:21.162Z,39.64
2022-07-29T11:45:42.696Z,39.28
2022-07-29T11:46:25.093Z,40.19
2022-07-29T11:47:21.217Z,40.25
2022-07-29T11:48:31.376Z,42.85
2022-07-29T11:49:22.273Z,42.63
2022-07-29T11:50:22.149Z,41.66
2022-07-29T11:51:21.106Z,42.25
2022-07-29T11:52:22.104Z,42.57
2022-07-29T11:53:21.100Z,41.75
2022-07-29T11:54:27.612Z,39.43
2022-07-29T11:55:22.085Z,39.95
2022-07-29T11:56:21.086Z,40.50
2022-07-29T11:57:21.068Z,41.20
2022-07-29T11:58:21.052Z,40.94
2022-07-29T11:59:21.043Z,42.68
2022-07-29T12:00:21.062Z,40.68
2022-07-29T12:01:21.058Z,40.39
2022-07-29T12:02:38.135Z,40.41
2022-07-29T12:03:22.008Z,41.77
2022-07-29T12:04:22.009Z,40.47
2022-07-29T12:05:35.886Z,39.16
2022-07-29T12:06:22.018Z,39.85
2022-07-29T12:07:20.996Z,39.93
2022-07-29T12:08:21.009Z,39.40
2022-07-29T12:09:20.973Z,40.48
2022-07-29T12:10:30.434Z,41.36
2022-07-29T12:11:23.081Z,39.46
2022-07-29T12:12:20.984Z,39.95
2022-07-29T12:13:20.939Z,40.86
2022-07-29T12:14:20.932Z,40.26
2022-07-29T12:15:20.924Z,40.66
2022-07-29T12:16:25.375Z,40.33
2022-07-29T12:17:21.972Z,39.22
2022-07-29T12:18:23.906Z,39.81
2022-07-29T12:19:20.908Z,40.05
2022-07-29T12:20:20.881Z,41.30
2022-07-29T12:21:20.875Z,42.41
2022-07-29T12:22:20.877Z,42.38
2022-07-29T12:23:20.955Z,40.07
2022-07-29T12:24:20.876Z,41.10
2022-07-29T12:25:36.224Z,39.91
2022-07-29T12:26:25.444Z,39.14
2022-07-29T12:27:28.623Z,38.98
2022-07-29T12:28:26.609Z,39.43
2022-07-29T12:29:33.895Z,40.15
2022-07-29T12:30:21.877Z,40.31
2022-07-29T12:31:43.096Z,39.14
2022-07-29T12:32:21.819Z,40.56
2022-07-29T12:33:20.803Z,39.08
2022-07-29T12:34:20.834Z,40.92
2022-07-29T12:35:20.790Z,38.41
2022-07-29T12:36:20.791Z,39.26
2022-07-29T12:37:20.762Z,37.47
2022-07-29T12:38:21.772Z,38.20
2022-07-29T12:39:20.734Z,37.72
2022-07-29T12:40:20.726Z,37.72
2022-07-29T12:41:20.776Z,39.09
2022-07-29T12:42:20.712Z,40.21
2022-07-29T12:43:20.709Z,38.81
2022-07-29T12:44:20.701Z,38.33
2022-07-29T12:45:20.706Z,39.89
2022-07-29T12:46:20.724Z,39.17
2022-07-29T12:47:20.826Z,39.26
2022-07-29T12:48:20.699Z,38.54
2022-07-29T12:49:20.730Z,37.07
2022-07-29T12:50:25.922Z,37.59
2022-07-29T12:51:21.769Z,37.59
2022-07-29T12:52:20.741Z,37.05
2022-07-29T12:53:20.689Z,37.35
2022-07-29T12:54:20.622Z,37.43